Aviation Digital Data Service (ADDS)

Output produced by TAFs form (0355 UTC 20 September 2014)
found at http://www.aviationweather.gov/adds/tafs/
 
KPSF 192337Z 2000/2024 VRB05KT P6SM FEW035 
     FM200700 00000KT 4SM BR OVC015 
     FM201500 20010G17KT P6SM BKN035